Time;durP1;ratioP1;P1;durP2;ratioP2;P2;SDS_P1;SDS_P2;PMS_P1;PMS_P2;Temp;Humidity;BMP_temperature;BMP_pressure;BME280_temperature;BME280_humidity;BME280_pressure;Samples;Min_cycle;Max_cycle;Signal;HPM_P1;HPM_P2
2024/02/07 00:00:59;;;;;;;17.00;8.90;;;;;;;7.09;100.00;100301.44;5055194;28;20059;-69
2024/02/07 00:03:25;;;;;;;12.07;8.52;;;;;;;7.45;100.00;100440.19;5056678;28;20405;-69
2024/02/07 00:05:51;;;;;;;14.25;8.65;;;;;;;7.81;100.00;100333.59;5055574;28;20384;-69
2024/02/07 00:08:16;;;;;;;14.38;8.90;;;;;;;7.14;100.00;100190.19;5051997;28;20033;-69
2024/02/07 00:10:42;;;;;;;15.68;9.27;;;;;;;7.69;100.00;100277.22;5051830;28;20028;-69
2024/02/07 00:13:07;;;;;;;13.10;9.63;;;;;;;6.58;100.00;100244.59;5054036;28;20070;-73
2024/02/07 00:15:33;;;;;;;14.15;9.48;;;;;;;6.73;100.00;100203.22;5053824;28;20521;-68
2024/02/07 00:17:58;;;;;;;12.95;9.18;;;;;;;7.06;100.00;100185.22;5052330;28;20033;-68
2024/02/07 00:20:24;;;;;;;15.10;9.85;;;;;;;7.22;100.00;100212.00;5054900;28;20033;-70
2024/02/07 00:22:49;;;;;;;13.88;10.05;;;;;;;6.75;100.00;100060.91;5052941;28;20028;-69
2024/02/07 00:25:15;;;;;;;16.92;9.57;;;;;;;7.01;100.00;99967.91;5055272;28;20029;-69
2024/02/07 00:27:40;;;;;;;12.75;8.48;;;;;;;7.55;100.00;100059.00;5055102;28;20155;-70
2024/02/07 00:30:06;;;;;;;13.80;8.68;;;;;;;7.06;100.00;99919.00;5055808;28;20036;-70
2024/02/07 00:32:32;;;;;;;12.75;8.80;;;;;;;6.64;100.00;100044.19;5055652;28;20048;-69
2024/02/07 00:34:57;;;;;;;13.98;8.45;;;;;;;6.49;100.00;99929.06;5055901;28;20024;-70
2024/02/07 00:37:23;;;;;;;14.35;8.43;;;;;;;7.49;100.00;100037.16;5051953;28;20028;-69
2024/02/07 00:39:48;;;;;;;14.73;8.60;;;;;;;7.36;100.00;100048.34;5054503;28;20033;-69
2024/02/07 00:42:14;;;;;;;13.30;8.15;;;;;;;7.22;100.00;100132.78;5052407;28;20124;-68
2024/02/07 00:44:39;;;;;;;12.43;8.05;;;;;;;7.33;100.00;100088.00;5052543;28;20037;-70
2024/02/07 00:47:05;;;;;;;13.25;8.27;;;;;;;7.59;100.00;100058.94;5054441;28;20036;-69
2024/02/07 00:49:31;;;;;;;13.23;8.90;;;;;;;6.80;100.00;100038.09;5052980;28;20037;-69
2024/02/07 00:51:56;;;;;;;17.05;10.00;;;;;;;6.64;100.00;100009.66;5054070;28;20473;-69
2024/02/07 00:54:24;;;;;;;15.15;9.40;;;;;;;7.03;100.00;100120.34;5052589;28;20151;-69
2024/02/07 00:56:49;;;;;;;18.05;10.07;;;;;;;6.70;100.00;100160.31;5050568;28;20120;-70
2024/02/07 00:59:15;;;;;;;15.80;9.82;;;;;;;6.37;100.00;99909.00;5050867;28;20123;-69
2024/02/07 01:01:40;;;;;;;13.13;9.40;;;;;;;7.03;100.00;100085.84;5051180;28;20040;-69
2024/02/07 01:04:06;;;;;;;15.73;10.27;;;;;;;7.13;100.00;100102.56;5053844;28;20067;-69
2024/02/07 01:06:32;;;;;;;14.18;10.43;;;;;;;6.56;100.00;100120.03;5050487;28;20093;-69
2024/02/07 01:08:57;;;;;;;17.17;11.32;;;;;;;6.19;100.00;99926.03;5049594;28;20048;-69
2024/02/07 01:11:22;;;;;;;18.13;10.85;;;;;;;6.21;100.00;99983.22;5051131;28;20033;-69
2024/02/07 01:13:49;;;;;;;17.02;11.57;;;;;;;6.82;100.00;100051.56;5053570;28;20036;-72
2024/02/07 01:16:15;;;;;;;18.52;11.75;;;;;;;5.78;100.00;100008.00;5054700;28;20029;-70
2024/02/07 01:18:40;;;;;;;15.82;11.45;;;;;;;6.19;100.00;100203.66;5052920;28;20032;-70
2024/02/07 01:21:09;;;;;;;18.17;11.18;;;;;;;5.80;100.00;99945.75;5052285;28;20775;-69
2024/02/07 01:23:37;;;;;;;16.63;9.95;;;;;;;6.81;100.00;100022.09;5054093;28;20033;-72
2024/02/07 01:26:02;;;;;;;15.75;10.38;;;;;;;6.55;100.00;100037.56;5052308;28;20517;-68
2024/02/07 01:28:28;;;;;;;16.90;10.20;;;;;;;6.53;100.00;100061.16;5052573;28;20037;-69
2024/02/07 01:30:53;;;;;;;16.88;10.70;;;;;;;6.33;100.00;100073.13;5054436;28;20119;-69
2024/02/07 01:33:19;;;;;;;17.50;10.13;;;;;;;5.86;100.00;99980.22;5053859;28;20036;-69
2024/02/07 01:35:46;;;;;;;16.60;10.60;;;;;;;5.68;100.00;100008.06;5053725;28;20040;-70
2024/02/07 01:38:17;;;;;;;15.68;10.55;;;;;;;6.41;100.00;100058.75;5052662;28;20035;-68
2024/02/07 01:40:45;;;;;;;14.90;10.23;;;;;;;6.29;100.00;100111.88;5051186;28;20540;-71
2024/02/07 01:43:11;;;;;;;14.52;9.88;;;;;;;6.56;100.00;100018.16;5054608;28;20033;-71
2024/02/07 01:45:37;;;;;;;20.92;10.93;;;;;;;5.94;100.00;99980.97;5054485;28;20443;-69
2024/02/07 01:48:03;;;;;;;17.48;11.77;;;;;;;5.91;100.00;99902.78;5051496;28;20469;-68
2024/02/07 01:50:29;;;;;;;17.75;10.90;;;;;;;5.02;100.00;99906.91;5050045;28;20032;-74
2024/02/07 01:53:01;;;;;;;18.40;10.90;;;;;;;6.43;100.00;100046.94;5054553;28;20067;-69
2024/02/07 01:55:28;;;;;;;15.35;8.95;;;;;;;5.79;100.00;100168.53;5048074;28;20500;-70
2024/02/07 01:57:55;;;;;;;17.00;9.88;;;;;;;5.95;100.00;100146.63;5053018;28;20024;-72
2024/02/07 02:00:24;;;;;;;16.00;9.30;;;;;;;5.83;100.00;100139.97;5051955;28;20047;-68
2024/02/07 02:02:52;;;;;;;13.48;8.48;;;;;;;5.22;100.00;100041.16;5050146;28;20403;-69
2024/02/07 02:05:17;;;;;;;12.80;8.60;;;;;;;6.21;100.00;100093.44;5049118;28;20032;-69
2024/02/07 02:07:44;;;;;;;11.30;7.80;;;;;;;5.59;100.00;100026.63;5051798;28;20025;-69
2024/02/07 02:10:10;;;;;;;11.85;7.90;;;;;;;6.06;100.00;99920.31;5055239;28;20163;-69
2024/02/07 02:12:37;;;;;;;12.80;7.65;;;;;;;5.44;100.00;100077.16;5054473;28;20028;-69
2024/02/07 02:15:05;;;;;;;12.68;7.68;;;;;;;6.35;100.00;100072.28;5055333;28;20508;-70
2024/02/07 02:17:30;;;;;;;14.68;9.00;;;;;;;6.31;100.00;100063.06;5058753;28;20453;-69
2024/02/07 02:19:57;;;;;;;12.23;8.35;;;;;;;5.64;100.00;100039.19;5053807;28;20025;-69
2024/02/07 02:22:40;;;;;;;13.75;8.50;;;;;;;5.99;100.00;100116.31;5056086;28;20111;-70
2024/02/07 02:25:29;;;;;;;13.82;8.20;;;;;;;5.46;100.00;100042.69;5054197;28;20410;-68
2024/02/07 02:28:36;;;;;;;12.00;8.15;;;;;;;5.83;100.00;100177.81;5059336;28;20036;-71
2024/02/07 02:31:06;;;;;;;12.52;8.25;;;;;;;5.71;100.00;100154.28;5045104;28;20041;-68
2024/02/07 02:33:38;;;;;;;21.58;10.27;;;;;;;5.15;100.00;100034.47;5054665;28;20040;-68
2024/02/07 02:36:04;;;;;;;14.07;9.90;;;;;;;6.18;100.00;100013.53;5054232;28;20056;-72
2024/02/07 02:38:35;;;;;;;21.20;11.50;;;;;;;6.25;100.00;100014.31;5057499;28;20033;-71
2024/02/07 02:41:03;;;;;;;19.58;11.25;;;;;;;6.14;100.00;100015.25;5055699;28;20029;-69
2024/02/07 02:43:29;;;;;;;17.83;11.43;;;;;;;5.37;100.00;99961.25;5085257;28;20071;-68
2024/02/07 02:45:55;;;;;;;18.55;11.60;;;;;;;5.03;100.00;99979.09;5053929;28;20082;-68
2024/02/07 02:48:20;;;;;;;22.15;11.75;;;;;;;5.16;100.00;99942.94;5055099;28;20462;-69
2024/02/07 02:50:46;;;;;;;20.98;11.70;;;;;;;4.95;100.00;99985.88;5054927;28;20032;-69
2024/02/07 02:53:12;;;;;;;19.30;12.23;;;;;;;5.61;100.00;100129.97;5053023;28;20032;-68
2024/02/07 02:55:39;;;;;;;20.58;11.52;;;;;;;5.09;100.00;100057.16;5051771;28;20029;-73
2024/02/07 02:58:05;;;;;;;23.33;12.55;;;;;;;5.09;100.00;100179.78;5052368;28;20029;-71
2024/02/07 03:00:30;;;;;;;21.52;11.50;;;;;;;5.30;100.00;99947.88;5052921;28;20040;-68
2024/02/07 03:02:57;;;;;;;20.55;12.07;;;;;;;4.93;100.00;100189.03;5055335;28;20021;-68
2024/02/07 03:05:45;;;;;;;24.80;12.25;;;;;;;4.68;100.00;99965.88;5050567;28;20495;-69
2024/02/07 03:08:21;;;;;;;21.67;12.25;;;;;;;4.67;100.00;100195.81;5054430;28;20450;-69
2024/02/07 03:10:49;;;;;;;23.83;14.73;;;;;;;5.38;100.00;100023.41;5058323;28;20064;-69
2024/02/07 03:13:15;;;;;;;18.75;11.55;;;;;;;5.11;100.00;100049.63;5055155;28;20036;-70
2024/02/07 03:15:41;;;;;;;19.88;11.73;;;;;;;4.77;100.00;99924.72;5054919;28;20491;-73
2024/02/07 03:18:07;;;;;;;24.33;13.38;;;;;;;5.07;100.00;100018.53;5052622;28;21147;-68
2024/02/07 03:20:33;;;;;;;26.60;16.10;;;;;;;5.05;100.00;100039.56;5052486;28;20567;-67
2024/02/07 03:22:58;;;;;;;25.33;13.85;;;;;;;4.15;100.00;100065.84;5058176;28;20044;-70
2024/02/07 03:25:23;;;;;;;21.02;12.80;;;;;;;4.14;100.00;99920.81;5052570;28;20036;-68
2024/02/07 03:27:50;;;;;;;22.00;12.68;;;;;;;4.38;100.00;99929.09;5056247;28;20039;-70
2024/02/07 03:30:23;;;;;;;20.67;11.90;;;;;;;4.20;100.00;99870.44;5055514;28;20437;-73
2024/02/07 03:32:51;;;;;;;23.30;11.77;;;;;;;4.31;100.00;99916.53;5054861;28;20036;-70
2024/02/07 03:35:17;;;;;;;20.30;10.90;;;;;;;5.13;100.00;100005.91;5056616;28;20025;-68
2024/02/07 03:37:43;;;;;;;17.40;9.48;;;;;;;4.83;100.00;100007.78;5052652;28;20020;-71
2024/02/07 03:40:14;;;;;;;20.13;9.38;;;;;;;4.51;100.00;100053.19;5054456;28;20056;-69
2024/02/07 03:42:44;;;;;;;19.05;8.43;;;;;;;4.61;100.00;100074.16;5056258;28;20044;-70
2024/02/07 03:45:15;;;;;;;15.57;8.73;;;;;;;4.65;100.00;100084.22;5053804;28;20491;-70
2024/02/07 03:47:41;;;;;;;13.00;8.80;;;;;;;4.01;100.00;100095.19;5056821;28;20495;-70
2024/02/07 03:50:10;;;;;;;16.23;8.40;;;;;;;4.55;100.00;100039.75;5052527;28;20530;-75
2024/02/07 03:52:37;;;;;;;14.70;8.48;;;;;;;3.69;100.00;99911.69;5052625;28;20032;-69
2024/02/07 03:55:05;;;;;;;12.68;8.20;;;;;;;3.60;100.00;99968.66;5054380;28;20522;-70
2024/02/07 03:57:30;;;;;;;14.75;8.88;;;;;;;4.78;100.00;99946.50;5050908;28;20119;-70
2024/02/07 03:59:56;;;;;;;14.75;9.50;;;;;;;4.14;100.00;99998.78;5056600;28;20517;-69
2024/02/07 04:02:21;;;;;;;15.57;9.05;;;;;;;4.15;100.00;99840.31;5053215;28;20091;-69
2024/02/07 04:04:55;;;;;;;17.92;11.55;;;;;;;4.89;100.00;99904.50;5053362;28;20032;-69
2024/02/07 04:07:25;;;;;;;26.13;14.05;;;;;;;4.78;100.00;99864.25;5055189;28;20037;-69
2024/02/07 04:09:52;;;;;;;24.10;14.13;;;;;;;3.82;100.00;99880.66;5053725;28;20029;-70
2024/02/07 05:17:19;;;;;;;41.20;21.55;;;;;;;4.22;100.00;99696.03;5046363;28;20029;-73
2024/02/07 05:19:45;;;;;;;34.42;20.98;;;;;;;3.47;100.00;99551.63;5049572;28;20019;-70
2024/02/07 05:22:12;;;;;;;38.15;21.52;;;;;;;3.86;100.00;99834.56;5052275;28;20499;-73
2024/02/07 05:24:38;;;;;;;47.88;25.25;;;;;;;3.75;100.00;99697.19;5050006;28;20032;-68
2024/02/07 05:27:06;;;;;;;43.80;24.38;;;;;;;4.31;100.00;99753.84;5049435;28;20025;-68
2024/02/07 05:29:33;;;;;;;40.55;20.70;;;;;;;3.46;100.00;99695.66;5055231;28;20032;-69
2024/02/07 05:31:59;;;;;;;41.17;21.35;;;;;;;3.80;100.00;99750.78;5053283;28;20057;-69
2024/02/07 05:34:24;;;;;;;49.13;27.25;;;;;;;3.43;100.00;99772.69;5055559;28;20075;-67
2024/02/07 05:36:50;;;;;;;63.28;37.85;;;;;;;3.69;100.00;99853.03;5055578;28;20028;-68
2024/02/07 05:39:15;;;;;;;60.45;35.60;;;;;;;3.57;100.00;99888.22;5050721;28;20063;-68
2024/02/07 05:41:43;;;;;;;52.88;31.23;;;;;;;4.23;100.00;99754.75;5051465;28;20025;-69
2024/02/07 05:44:09;;;;;;;41.20;23.55;;;;;;;5.40;100.00;99291.72;5046097;28;20060;-69
2024/02/07 05:46:36;;;;;;;49.97;29.85;;;;;;;4.35;100.00;99730.34;5048186;28;20083;-68
2024/02/07 05:49:02;;;;;;;45.67;30.25;;;;;;;3.35;100.00;99689.81;5053515;28;20538;-68
2024/02/07 05:51:27;;;;;;;70.97;42.35;;;;;;;4.20;100.00;99818.47;5050868;28;20033;-69
2024/02/07 05:53:53;;;;;;;61.10;35.80;;;;;;;3.66;100.00;99792.75;5048107;28;20041;-70
2024/02/07 05:56:19;;;;;;;62.50;38.65;;;;;;;4.07;100.00;99839.50;5046785;28;20071;-69
2024/02/07 05:58:47;;;;;;;60.15;41.15;;;;;;;4.66;100.00;99743.50;5053118;28;20024;-68
2024/02/07 06:01:13;;;;;;;67.47;48.28;;;;;;;5.18;100.00;99734.66;5050497;28;20036;-68
2024/02/07 06:03:39;;;;;;;55.72;37.33;;;;;;;5.49;100.00;99638.50;5053420;28;20036;-68
2024/02/07 06:06:06;;;;;;;105.78;61.10;;;;;;;6.12;100.00;99746.09;5052944;28;20098;-69
2024/02/07 06:08:32;;;;;;;52.20;31.73;;;;;;;5.24;100.00;99905.91;5052311;28;20067;-68
2024/02/07 06:10:58;;;;;;;72.55;43.13;;;;;;;5.77;100.00;99918.03;5052788;28;20036;-68
2024/02/07 06:13:24;;;;;;;50.88;28.83;;;;;;;6.90;100.00;99643.84;5055370;28;20120;-67
2024/02/07 06:15:50;;;;;;;52.60;34.67;;;;;;;7.89;100.00;99817.22;5055698;28;20575;-67
2024/02/07 06:18:19;;;;;;;37.75;22.23;;;;;;;8.98;100.00;99747.22;5058236;28;20041;-69
2024/02/07 06:20:45;;;;;;;46.47;23.25;;;;;;;8.92;100.00;99885.94;5058146;28;20029;-69
2024/02/07 06:23:10;;;;;;;28.63;18.23;;;;;;;9.65;100.00;100060.97;5055644;28;20033;-68
2024/02/07 06:25:35;;;;;;;38.33;19.80;;;;;;;10.04;100.00;100005.84;5058075;28;20033;-68
2024/02/07 06:28:10;;;;;;;36.63;20.70;;;;;;;10.25;100.00;99899.47;5057678;28;20036;-69
2024/02/07 06:30:37;;;;;;;40.95;26.10;;;;;;;10.34;100.00;100066.06;5058735;28;20028;-70
2024/02/07 06:33:03;;;;;;;51.17;34.65;;;;;;;10.71;100.00;100160.00;5060001;28;20036;-69
2024/02/07 06:35:29;;;;;;;62.45;39.45;;;;;;;10.65;100.00;100188.97;5058739;28;20029;-69
2024/02/07 06:37:54;;;;;;;112.20;69.47;;;;;;;9.40;100.00;100270.44;5059319;28;20473;-69
2024/02/07 06:40:19;;;;;;;76.97;52.47;;;;;;;9.51;100.00;100200.84;5056857;28;20033;-69
2024/02/07 06:42:45;;;;;;;96.45;66.28;;;;;;;10.47;100.00;100186.88;5058047;28;20086;-70
2024/02/07 06:45:10;;;;;;;40.97;28.40;;;;;;;8.32;100.00;100351.59;5051500;28;20037;-68
2024/02/07 06:47:36;;;;;;;34.85;23.45;;;;;;;6.62;100.00;100397.78;5057100;28;20483;-68
2024/02/07 06:50:01;;;;;;;43.70;28.73;;;;;;;7.42;100.00;100402.31;5060653;28;20529;-68
2024/02/07 06:52:27;;;;;;;35.03;24.55;;;;;;;7.66;100.00;100083.31;5057581;28;20505;-69
2024/02/07 06:54:52;;;;;;;27.75;19.17;;;;;;;7.77;100.00;100293.16;5057244;28;20045;-68
2024/02/07 06:57:18;;;;;;;30.35;22.10;;;;;;;8.00;100.00;100249.84;5060748;28;20043;-69
2024/02/07 06:59:43;;;;;;;29.42;20.58;;;;;;;8.13;100.00;100115.47;5062039;28;20024;-69
2024/02/07 07:02:09;;;;;;;33.72;23.98;;;;;;;7.11;100.00;100121.97;5062522;28;20043;-68
2024/02/07 07:04:34;;;;;;;33.97;22.92;;;;;;;7.86;100.00;99948.88;5058339;28;20032;-68
2024/02/07 07:07:01;;;;;;;37.67;25.58;;;;;;;8.27;100.00;100171.84;5059880;28;20028;-71
2024/02/07 07:09:27;;;;;;;32.33;23.08;;;;;;;7.41;100.00;100089.53;5058779;28;20126;-68
2024/02/07 07:11:52;;;;;;;33.65;23.05;;;;;;;8.07;100.00;100152.69;5064080;28;20107;-69
2024/02/07 07:14:18;;;;;;;32.80;23.52;;;;;;;8.20;100.00;100134.75;5062109;28;20089;-68
2024/02/07 07:16:43;;;;;;;31.85;22.48;;;;;;;7.56;100.00;100187.16;5059989;28;20029;-69
2024/02/07 07:19:09;;;;;;;25.98;19.75;;;;;;;8.47;100.00;100024.59;5059439;28;20036;-68
2024/02/07 07:21:34;;;;;;;27.73;20.38;;;;;;;9.00;100.00;100006.59;5064883;28;20021;-68
2024/02/07 07:24:00;;;;;;;22.67;17.10;;;;;;;8.16;100.00;99909.50;5059303;28;20093;-69
2024/02/07 07:26:26;;;;;;;23.40;18.17;;;;;;;9.24;100.00;100017.91;5055729;28;20118;-69
2024/02/07 07:28:54;;;;;;;18.92;12.75;;;;;;;8.02;100.00;99962.09;5060885;28;20431;-69
2024/02/07 07:31:19;;;;;;;18.73;11.60;;;;;;;7.93;100.00;100006.09;5066903;28;20040;-69
2024/02/07 07:33:45;;;;;;;18.90;12.20;;;;;;;8.81;100.00;99895.50;5062503;28;20032;-69
2024/02/07 07:36:16;;;;;;;16.60;10.40;;;;;;;9.49;100.00;99981.81;5064708;28;20483;-69
2024/02/07 07:38:41;;;;;;;16.98;10.88;;;;;;;8.41;100.00;100034.81;5055709;28;20033;-68
2024/02/07 07:41:07;;;;;;;20.05;12.57;;;;;;;8.07;100.00;100226.97;5060066;28;20267;-68
2024/02/07 07:43:32;;;;;;;16.02;12.07;;;;;;;7.68;100.00;99977.03;5057687;28;20105;-68
2024/02/07 07:45:58;;;;;;;15.80;10.98;;;;;;;8.80;100.00;99968.16;5059021;28;20064;-70
2024/02/07 07:48:23;;;;;;;21.27;11.95;;;;;;;8.38;100.00;99931.03;5056387;28;20032;-68
2024/02/07 07:50:49;;;;;;;15.80;11.60;;;;;;;8.17;100.00;100150.00;5059889;28;20070;-69
2024/02/07 07:53:14;;;;;;;17.13;12.63;;;;;;;8.11;100.00;99889.34;5058975;28;20442;-68
2024/02/07 07:55:40;;;;;;;15.95;11.75;;;;;;;8.87;100.00;99989.16;5060371;28;20059;-68
2024/02/07 07:58:05;;;;;;;19.75;12.55;;;;;;;8.46;100.00;100064.28;5060184;28;20471;-67
2024/02/07 08:00:31;;;;;;;20.50;14.73;;;;;;;8.75;100.00;99812.84;5058691;28;20451;-69
2024/02/07 08:02:56;;;;;;;22.35;13.88;;;;;;;9.87;100.00;99851.41;5064505;28;20028;-68
2024/02/07 08:05:22;;;;;;;23.70;16.15;;;;;;;9.18;100.00;100030.72;5061338;28;20035;-68
2024/02/07 08:07:47;;;;;;;23.50;14.52;;;;;;;8.73;100.00;99910.88;5058181;28;20108;-68
2024/02/07 08:10:12;;;;;;;23.58;14.70;;;;;;;9.46;100.00;99988.66;5061356;28;20119;-68
2024/02/07 08:12:38;;;;;;;21.63;13.50;;;;;;;9.15;100.00;100066.31;5062627;28;20039;-68
2024/02/07 08:15:04;;;;;;;22.30;14.82;;;;;;;9.79;100.00;99871.06;5058627;28;20135;-70
2024/02/07 08:17:29;;;;;;;23.27;16.65;;;;;;;8.79;100.00;100117.75;5056643;28;20123;-68
2024/02/07 08:19:55;;;;;;;23.05;14.95;;;;;;;9.46;100.00;100025.03;5057386;28;20033;-68
2024/02/07 08:22:20;;;;;;;22.88;15.95;;;;;;;10.12;100.00;99971.78;5063564;28;20174;-69
2024/02/07 08:24:46;;;;;;;21.25;15.32;;;;;;;9.66;100.00;100056.72;5058857;28;20029;-69
2024/02/07 08:27:11;;;;;;;17.83;13.45;;;;;;;9.58;100.00;99914.78;5053683;28;20047;-70
2024/02/07 08:29:37;;;;;;;24.88;15.13;;;;;;;9.17;100.00;100012.13;5055826;28;20029;-67
2024/02/07 08:32:02;;;;;;;19.45;13.88;;;;;;;10.29;100.00;99945.94;5059986;28;20027;-69
2024/02/07 08:34:28;;;;;;;17.73;12.15;;;;;;;10.23;100.00;99931.69;5060720;28;20074;-68
2024/02/07 08:36:53;;;;;;;17.13;11.40;;;;;;;9.33;100.00;100015.19;5061021;28;20047;-70
2024/02/07 08:39:19;;;;;;;17.80;12.23;;;;;;;9.38;100.00;100008.31;5063699;28;20419;-69
2024/02/07 08:41:44;;;;;;;16.63;11.35;;;;;;;9.92;100.00;100011.25;5058828;28;20025;-71
2024/02/07 08:44:10;;;;;;;22.67;16.27;;;;;;;10.72;100.00;100029.44;5061468;28;20085;-70
2024/02/07 08:46:35;;;;;;;19.55;13.00;;;;;;;10.89;100.00;100053.56;5061709;28;20032;-69
2024/02/07 08:49:01;;;;;;;16.23;10.70;;;;;;;9.99;100.00;100153.25;5061091;28;20509;-69
2024/02/07 08:51:26;;;;;;;17.33;11.25;;;;;;;10.67;100.00;100123.66;5057662;28;20052;-69
2024/02/07 08:53:52;;;;;;;15.20;10.50;;;;;;;10.42;100.00;100125.16;5058784;28;20040;-70
2024/02/07 08:56:17;;;;;;;14.82;10.95;;;;;;;10.71;100.00;99979.50;5058578;28;20045;-69
2024/02/07 08:58:43;;;;;;;18.90;13.25;;;;;;;9.89;100.00;100032.47;5058537;28;20040;-69
2024/02/07 09:01:09;;;;;;;17.52;11.38;;;;;;;11.34;100.00;100026.78;5060428;28;20115;-69
2024/02/07 09:03:35;;;;;;;14.32;10.48;;;;;;;10.99;100.00;99971.00;5056919;28;20033;-68
2024/02/07 09:06:01;;;;;;;18.42;10.52;;;;;;;10.60;100.00;100032.34;5063322;28;20391;-69
2024/02/07 09:08:27;;;;;;;14.35;9.80;;;;;;;11.28;100.00;100041.38;5059584;28;20035;-69
2024/02/07 09:10:52;;;;;;;18.73;13.27;;;;;;;11.40;100.00;100098.72;5059358;28;20037;-69
2024/02/07 09:13:18;;;;;;;17.67;10.90;;;;;;;11.85;100.00;100047.25;5059876;28;20070;-69
2024/02/07 09:15:43;;;;;;;14.60;9.48;;;;;;;10.82;100.00;100028.31;5060375;28;20063;-69
2024/02/07 09:18:09;;;;;;;14.40;9.88;;;;;;;11.74;100.00;100079.88;5056511;28;20415;-70
2024/02/07 09:20:34;;;;;;;50.63;28.75;;;;;;;12.02;100.00;100018.69;5058471;28;20029;-69
2024/02/07 09:23:00;;;;;;;15.10;10.65;;;;;;;12.54;100.00;99982.03;5056288;28;20047;-69
2024/02/07 09:25:25;;;;;;;19.17;12.45;;;;;;;11.46;100.00;100019.63;5056243;28;20033;-74
2024/02/07 09:27:51;;;;;;;15.80;13.25;;;;;;;12.15;100.00;100032.69;5053263;28;20025;-69
2024/02/07 09:30:17;;;;;;;20.90;13.57;;;;;;;12.86;100.00;99923.00;5056790;28;20123;-70
2024/02/07 09:32:43;;;;;;;15.30;10.40;;;;;;;12.74;100.00;99947.25;5058845;28;20033;-69
2024/02/07 09:35:09;;;;;;;15.18;9.80;;;;;;;12.06;100.00;99906.41;5056976;28;20028;-69
2024/02/07 09:37:34;;;;;;;12.55;9.30;;;;;;;12.72;100.00;99986.44;5056964;28;20407;-69
2024/02/07 09:40:00;;;;;;;13.60;9.35;;;;;;;13.00;100.00;99910.53;5057003;28;20090;-71
2024/02/07 09:42:25;;;;;;;11.10;7.75;;;;;;;13.00;100.00;99823.78;5058684;28;20059;-69
2024/02/07 09:44:53;;;;;;;13.35;8.70;;;;;;;12.98;100.00;99774.53;5052950;28;20036;-69
2024/02/07 09:47:20;;;;;;;12.77;8.57;;;;;;;12.92;100.00;99796.03;5055607;28;20090;-69
2024/02/07 09:49:47;;;;;;;14.98;8.82;;;;;;;13.21;100.00;99927.59;5054683;28;20419;-69
2024/02/07 09:52:14;;;;;;;15.82;9.30;;;;;;;13.56;100.00;99852.13;5056481;28;20075;-70
2024/02/07 09:54:42;;;;;;;14.43;8.40;;;;;;;13.17;100.00;99775.47;5057183;28;20021;-69
2024/02/07 09:57:08;;;;;;;9.90;8.18;;;;;;;14.06;100.00;99802.22;5058161;28;20504;-69
2024/02/07 09:59:35;;;;;;;16.33;8.02;;;;;;;14.00;100.00;99725.78;5056031;28;20115;-69
2024/02/07 10:02:04;;;;;;;14.05;10.90;;;;;;;13.26;100.00;99738.50;5055343;28;20059;-68
2024/02/07 10:04:36;;;;;;;13.32;9.05;;;;;;;13.67;100.00;99715.34;5061288;28;20070;-71
2024/02/07 10:07:01;;;;;;;15.73;10.13;;;;;;;14.33;100.00;99762.59;5057123;28;20201;-69
2024/02/07 10:09:29;;;;;;;26.55;18.58;;;;;;;13.54;100.00;99750.03;5059534;28;20028;-69
2024/02/07 10:11:55;;;;;;;20.55;11.18;;;;;;;14.29;100.00;99806.28;5055798;28;20040;-69
2024/02/07 10:14:22;;;;;;;13.73;8.95;;;;;;;14.25;100.00;99693.06;5058164;28;20037;-68
2024/02/07 10:16:48;;;;;;;16.90;8.90;;;;;;;14.48;100.00;99784.09;5058822;28;20385;-70
2024/02/07 10:19:13;;;;;;;11.32;8.57;;;;;;;14.30;100.00;99825.88;5054420;28;20118;-70
2024/02/07 10:21:39;;;;;;;17.23;9.68;;;;;;;15.05;100.00;99724.97;5056982;28;20116;-70
2024/02/07 10:24:05;;;;;;;14.43;9.43;;;;;;;15.15;100.00;99687.72;5052509;28;20041;-68
2024/02/07 10:26:32;;;;;;;16.38;9.10;;;;;;;15.11;100.00;99621.41;5059840;28;20040;-68
2024/02/07 10:29:01;;;;;;;17.48;11.25;;;;;;;15.42;100.00;99595.84;4697287;28;9999726;-71
2024/02/07 10:31:27;;;;;;;17.55;9.93;;;;;;;14.89;100.00;99573.03;5056129;28;20095;-70
2024/02/07 10:33:54;;;;;;;13.00;9.00;;;;;;;15.01;100.00;99761.88;5060582;28;20549;-70
2024/02/07 10:36:25;;;;;;;10.85;7.82;;;;;;;14.44;100.00;99672.59;5063269;28;20033;-69
2024/02/07 10:39:00;;;;;;;18.13;9.68;;;;;;;15.41;100.00;99700.00;5051987;28;20089;-68
2024/02/07 10:41:25;;;;;;;13.65;7.80;;;;;;;15.37;100.00;99690.81;5059011;28;20127;-69
2024/02/07 10:43:51;;;;;;;17.42;10.32;;;;;;;15.42;100.00;99700.88;5057986;28;20127;-69
2024/02/07 10:46:18;;;;;;;14.32;9.63;;;;;;;15.47;100.00;99561.38;5055627;28;20028;-69
2024/02/07 10:48:44;;;;;;;14.52;9.45;;;;;;;15.86;100.00;99634.44;5055995;28;20033;-70
2024/02/07 10:51:10;;;;;;;12.75;8.68;;;;;;;15.52;100.00;99704.63;5057077;28;20172;-69
2024/02/07 10:53:37;;;;;;;14.98;8.93;;;;;;;14.58;100.00;99526.91;5058522;28;20033;-71
2024/02/07 10:56:06;;;;;;;17.15;11.40;;;;;;;15.62;100.00;99531.53;5064747;28;20156;-69
2024/02/07 10:58:32;;;;;;;12.10;9.23;;;;;;;16.05;100.00;99574.34;5068675;28;20057;-67
2024/02/07 11:00:58;;;;;;;15.05;9.50;;;;;;;15.44;100.00;99589.72;5057020;28;20452;-70
2024/02/07 11:03:30;;;;;;;16.65;9.55;;;;;;;15.08;100.00;99589.09;5060583;28;20031;-69
2024/02/07 11:05:57;;;;;;;15.55;9.88;;;;;;;15.92;100.00;99604.16;5062189;28;20060;-68
2024/02/07 11:08:23;;;;;;;13.95;9.50;;;;;;;15.85;100.00;99584.03;5062431;28;20036;-67
2024/02/07 11:10:51;;;;;;;20.52;11.25;;;;;;;16.07;100.00;99600.72;5063006;28;20060;-68
2024/02/07 11:13:18;;;;;;;15.75;11.63;;;;;;;15.60;100.00;99530.78;5060314;28;20553;-68
2024/02/07 11:15:43;;;;;;;16.42;11.13;;;;;;;16.21;100.00;99592.25;5055623;28;20487;-69
2024/02/07 11:18:11;;;;;;;17.70;11.38;;;;;;;15.71;100.00;99489.19;5059700;28;20032;-68
2024/02/07 11:20:37;;;;;;;17.00;11.75;;;;;;;16.00;100.00;99507.13;5042861;28;20044;-69
2024/02/07 11:23:26;;;;;;;14.63;10.70;;;;;;;16.64;100.00;99547.78;5064449;28;20028;-69
2024/02/07 11:25:53;;;;;;;13.98;10.98;;;;;;;16.51;100.00;99575.09;5052014;28;20029;-67
2024/02/07 11:28:19;;;;;;;17.15;10.38;;;;;;;15.90;100.00;99641.03;5063382;28;20522;-68
2024/02/07 11:30:49;;;;;;;20.00;12.88;;;;;;;16.50;100.00;99555.47;5060059;28;20036;-68
2024/02/07 11:33:14;;;;;;;19.50;12.27;;;;;;;16.52;100.00;99569.03;5058497;28;20029;-68
2024/02/07 11:35:40;;;;;;;19.20;12.18;;;;;;;16.96;100.00;99482.47;5056304;28;20036;-68
2024/02/07 11:38:09;;;;;;;25.83;14.30;;;;;;;16.60;100.00;99376.91;5058993;28;20070;-69
2024/02/07 11:40:40;;;;;;;20.67;13.18;;;;;;;16.79;100.00;99498.09;5057443;28;20059;-69
2024/02/07 11:43:10;;;;;;;20.50;12.55;;;;;;;16.51;100.00;99431.41;5058320;28;20032;-69
2024/02/07 11:45:38;;;;;;;17.88;11.15;;;;;;;17.27;100.00;99484.78;5059885;28;20104;-71
2024/02/07 11:48:17;;;;;;;22.50;12.60;;;;;;;17.35;100.00;99449.13;5054863;28;20115;-69
2024/02/07 11:50:43;;;;;;;18.27;12.15;;;;;;;16.84;100.00;99423.34;5059486;28;20020;-69
2024/02/07 11:53:18;;;;;;;18.30;12.25;;;;;;;16.57;100.00;99404.53;5053255;28;20388;-70
2024/02/07 11:55:45;;;;;;;19.83;13.02;;;;;;;16.54;100.00;99423.50;5065711;28;20036;-69
2024/02/07 11:58:11;;;;;;;19.13;12.57;;;;;;;17.24;100.00;99472.13;5066155;28;20058;-69
2024/02/07 12:00:36;;;;;;;20.05;11.85;;;;;;;16.42;100.00;99336.97;5059203;28;20519;-75
2024/02/07 12:03:02;;;;;;;17.00;11.15;;;;;;;16.88;100.00;99397.38;5057187;28;20025;-68
2024/02/07 12:05:28;;;;;;;22.20;13.73;;;;;;;16.85;100.00;99374.50;5061513;28;21842;-69
2024/02/07 12:07:54;;;;;;;17.13;11.05;;;;;;;17.01;100.00;99411.13;5060427;28;20071;-69
2024/02/07 12:10:20;;;;;;;16.52;10.43;;;;;;;16.98;100.00;99400.19;5058707;28;20036;-69
2024/02/07 12:12:49;;;;;;;18.67;11.38;;;;;;;16.78;100.00;99392.91;5056976;28;20335;-70
2024/02/07 12:15:15;;;;;;;15.43;10.05;;;;;;;16.43;100.00;99379.69;5056046;28;20487;-69
2024/02/07 12:17:41;;;;;;;15.00;9.98;;;;;;;16.94;100.00;99510.00;5063273;28;20128;-69